sensor_id;sensor_type;location;lat;lon;timestamp;P1;durP1;ratioP1;P2;durP2;ratioP2
48052;SDS011;33824;51.600;5.718;2022-12-29T00:00:04;2.25;;;1.00;;
48052;SDS011;33824;51.600;5.718;2022-12-29T00:02:31;2.85;;;1.00;;
48052;SDS011;33824;51.600;5.718;2022-12-29T00:04:57;2.80;;;1.00;;
48052;SDS011;33824;51.600;5.718;2022-12-29T00:07:23;2.97;;;1.05;;
48052;SDS011;33824;51.600;5.718;2022-12-29T00:09:49;3.22;;;0.95;;
48052;SDS011;33824;51.600;5.718;2022-12-29T00:12:14;7.05;;;0.80;;
48052;SDS011;33824;51.600;5.718;2022-12-29T00:14:40;2.47;;;0.80;;
48052;SDS011;33824;51.600;5.718;2022-12-29T00:17:24;6.28;;;0.90;;
48052;SDS011;33824;51.600;5.718;2022-12-29T00:19:49;2.50;;;0.70;;
48052;SDS011;33824;51.600;5.718;2022-12-29T00:22:33;1.75;;;0.70;;
48052;SDS011;33824;51.600;5.718;2022-12-29T00:25:18;2.60;;;1.48;;
48052;SDS011;33824;51.600;5.718;2022-12-29T00:28:02;1.48;;;0.50;;
48052;SDS011;33824;51.600;5.718;2022-12-29T00:30:46;1.25;;;0.40;;
48052;SDS011;33824;51.600;5.718;2022-12-29T00:33:32;2.17;;;0.45;;
48052;SDS011;33824;51.600;5.718;2022-12-29T00:36:25;1.77;;;0.35;;
48052;SDS011;33824;51.600;5.718;2022-12-29T00:38:57;2.28;;;0.50;;
48052;SDS011;33824;51.600;5.718;2022-12-29T00:41:44;0.60;;;0.50;;
48052;SDS011;33824;51.600;5.718;2022-12-29T00:44:28;1.85;;;0.40;;
48052;SDS011;33824;51.600;5.718;2022-12-29T00:46:57;0.85;;;0.45;;
48052;SDS011;33824;51.600;5.718;2022-12-29T00:49:22;1.17;;;0.50;;
48052;SDS011;33824;51.600;5.718;2022-12-29T00:54:31;0.45;;;0.32;;
48052;SDS011;33824;51.600;5.718;2022-12-29T00:56:58;0.77;;;0.47;;
48052;SDS011;33824;51.600;5.718;2022-12-29T00:59:24;0.52;;;0.50;;
48052;SDS011;33824;51.600;5.718;2022-12-29T01:01:51;1.35;;;0.52;;
48052;SDS011;33824;51.600;5.718;2022-12-29T01:04:18;2.60;;;0.80;;
48052;SDS011;33824;51.600;5.718;2022-12-29T01:06:45;0.63;;;0.63;;
48052;SDS011;33824;51.600;5.718;2022-12-29T01:09:11;4.32;;;1.27;;
48052;SDS011;33824;51.600;5.718;2022-12-29T01:11:56;2.88;;;1.08;;
48052;SDS011;33824;51.600;5.718;2022-12-29T01:14:21;1.35;;;1.20;;
48052;SDS011;33824;51.600;5.718;2022-12-29T01:16:48;2.90;;;1.00;;
48052;SDS011;33824;51.600;5.718;2022-12-29T01:19:14;2.78;;;1.00;;
48052;SDS011;33824;51.600;5.718;2022-12-29T01:21:41;2.28;;;0.90;;
48052;SDS011;33824;51.600;5.718;2022-12-29T01:24:06;6.32;;;0.80;;
48052;SDS011;33824;51.600;5.718;2022-12-29T01:26:33;3.58;;;1.70;;
48052;SDS011;33824;51.600;5.718;2022-12-29T01:28:58;1.40;;;0.80;;
48052;SDS011;33824;51.600;5.718;2022-12-29T01:31:24;0.77;;;0.73;;
48052;SDS011;33824;51.600;5.718;2022-12-29T01:33:49;1.25;;;0.70;;
48052;SDS011;33824;51.600;5.718;2022-12-29T01:36:15;1.65;;;0.88;;
48052;SDS011;33824;51.600;5.718;2022-12-29T01:38:42;2.28;;;0.73;;
48052;SDS011;33824;51.600;5.718;2022-12-29T01:41:09;1.30;;;0.73;;
48052;SDS011;33824;51.600;5.718;2022-12-29T01:43:43;2.15;;;0.70;;
48052;SDS011;33824;51.600;5.718;2022-12-29T01:46:20;1.17;;;0.70;;
48052;SDS011;33824;51.600;5.718;2022-12-29T01:48:51;1.50;;;1.00;;
48052;SDS011;33824;51.600;5.718;2022-12-29T01:51:21;1.30;;;0.77;;
48052;SDS011;33824;51.600;5.718;2022-12-29T01:53:48;0.98;;;0.70;;
48052;SDS011;33824;51.600;5.718;2022-12-29T01:56:15;0.95;;;0.63;;
48052;SDS011;33824;51.600;5.718;2022-12-29T01:58:44;3.00;;;1.67;;
48052;SDS011;33824;51.600;5.718;2022-12-29T02:01:14;1.13;;;0.68;;
48052;SDS011;33824;51.600;5.718;2022-12-29T02:03:42;1.30;;;0.70;;
48052;SDS011;33824;51.600;5.718;2022-12-29T02:06:12;1.25;;;0.50;;
48052;SDS011;33824;51.600;5.718;2022-12-29T02:08:42;1.27;;;0.57;;
48052;SDS011;33824;51.600;5.718;2022-12-29T02:11:11;1.58;;;0.50;;
48052;SDS011;33824;51.600;5.718;2022-12-29T02:13:38;1.88;;;0.50;;
48052;SDS011;33824;51.600;5.718;2022-12-29T02:32:45;2.20;;;0.80;;
48052;SDS011;33824;51.600;5.718;2022-12-29T02:40:42;2.10;;;0.50;;
48052;SDS011;33824;51.600;5.718;2022-12-29T02:43:23;1.48;;;0.70;;
48052;SDS011;33824;51.600;5.718;2022-12-29T02:45:59;1.88;;;0.50;;
48052;SDS011;33824;51.600;5.718;2022-12-29T02:49:20;2.10;;;0.60;;
48052;SDS011;33824;51.600;5.718;2022-12-29T02:51:51;1.45;;;0.60;;
48052;SDS011;33824;51.600;5.718;2022-12-29T02:54:23;2.72;;;0.73;;
48052;SDS011;33824;51.600;5.718;2022-12-29T02:57:11;4.57;;;0.93;;
48052;SDS011;33824;51.600;5.718;2022-12-29T03:05:10;1.50;;;0.60;;
48052;SDS011;33824;51.600;5.718;2022-12-29T03:07:52;2.33;;;0.63;;
48052;SDS011;33824;51.600;5.718;2022-12-29T03:10:31;2.90;;;0.55;;
48052;SDS011;33824;51.600;5.718;2022-12-29T03:13:49;1.05;;;0.55;;
48052;SDS011;33824;51.600;5.718;2022-12-29T03:21:44;0.70;;;0.40;;
48052;SDS011;33824;51.600;5.718;2022-12-29T03:24:38;0.68;;;0.32;;
48052;SDS011;33824;51.600;5.718;2022-12-29T03:27:09;4.15;;;0.60;;
48052;SDS011;33824;51.600;5.718;2022-12-29T03:29:48;0.70;;;0.60;;
48052;SDS011;33824;51.600;5.718;2022-12-29T03:32:23;2.20;;;0.50;;
48052;SDS011;33824;51.600;5.718;2022-12-29T03:34:53;3.00;;;0.80;;
48052;SDS011;33824;51.600;5.718;2022-12-29T03:37:22;4.43;;;0.68;;
48052;SDS011;33824;51.600;5.718;2022-12-29T03:39:51;1.70;;;0.50;;
48052;SDS011;33824;51.600;5.718;2022-12-29T03:42:17;4.70;;;0.80;;
48052;SDS011;33824;51.600;5.718;2022-12-29T03:44:48;3.70;;;0.60;;
48052;SDS011;33824;51.600;5.718;2022-12-29T03:47:14;2.17;;;0.65;;
48052;SDS011;33824;51.600;5.718;2022-12-29T03:49:40;2.15;;;0.60;;
48052;SDS011;33824;51.600;5.718;2022-12-29T03:52:06;6.88;;;1.35;;
48052;SDS011;33824;51.600;5.718;2022-12-29T03:54:32;2.75;;;0.70;;
48052;SDS011;33824;51.600;5.718;2022-12-29T03:56:58;3.25;;;0.73;;
48052;SDS011;33824;51.600;5.718;2022-12-29T03:59:23;2.80;;;0.70;;
48052;SDS011;33824;51.600;5.718;2022-12-29T04:01:49;3.40;;;0.90;;
48052;SDS011;33824;51.600;5.718;2022-12-29T04:04:15;3.20;;;0.55;;
48052;SDS011;33824;51.600;5.718;2022-12-29T04:06:41;3.80;;;0.80;;
48052;SDS011;33824;51.600;5.718;2022-12-29T04:09:06;3.45;;;0.57;;
48052;SDS011;33824;51.600;5.718;2022-12-29T04:11:32;5.90;;;1.30;;
48052;SDS011;33824;51.600;5.718;2022-12-29T04:13:57;2.65;;;0.68;;
48052;SDS011;33824;51.600;5.718;2022-12-29T04:16:23;2.30;;;0.52;;
48052;SDS011;33824;51.600;5.718;2022-12-29T04:18:49;3.20;;;0.50;;
48052;SDS011;33824;51.600;5.718;2022-12-29T04:21:14;23.77;;;1.65;;
48052;SDS011;33824;51.600;5.718;2022-12-29T04:23:40;2.05;;;1.02;;
48052;SDS011;33824;51.600;5.718;2022-12-29T04:26:06;2.63;;;0.70;;
48052;SDS011;33824;51.600;5.718;2022-12-29T04:28:32;2.30;;;0.60;;
48052;SDS011;33824;51.600;5.718;2022-12-29T04:30:58;3.40;;;0.63;;
48052;SDS011;33824;51.600;5.718;2022-12-29T04:33:24;4.13;;;0.55;;
48052;SDS011;33824;51.600;5.718;2022-12-29T04:35:50;2.53;;;0.82;;
48052;SDS011;33824;51.600;5.718;2022-12-29T04:38:18;3.28;;;0.60;;
48052;SDS011;33824;51.600;5.718;2022-12-29T04:40:44;4.50;;;0.63;;
48052;SDS011;33824;51.600;5.718;2022-12-29T04:43:09;3.92;;;0.70;;
48052;SDS011;33824;51.600;5.718;2022-12-29T04:45:36;3.90;;;0.90;;
48052;SDS011;33824;51.600;5.718;2022-12-29T04:48:01;3.53;;;0.80;;
48052;SDS011;33824;51.600;5.718;2022-12-29T04:50:27;2.83;;;0.90;;
48052;SDS011;33824;51.600;5.718;2022-12-29T04:52:53;3.28;;;1.08;;
48052;SDS011;33824;51.600;5.718;2022-12-29T04:55:19;3.85;;;0.90;;
48052;SDS011;33824;51.600;5.718;2022-12-29T04:57:44;3.70;;;0.85;;
48052;SDS011;33824;51.600;5.718;2022-12-29T05:00:10;6.30;;;1.13;;
48052;SDS011;33824;51.600;5.718;2022-12-29T05:02:37;7.85;;;1.15;;
48052;SDS011;33824;51.600;5.718;2022-12-29T05:05:03;7.13;;;1.23;;
48052;SDS011;33824;51.600;5.718;2022-12-29T05:07:29;5.93;;;1.02;;
48052;SDS011;33824;51.600;5.718;2022-12-29T05:09:55;8.40;;;0.98;;
48052;SDS011;33824;51.600;5.718;2022-12-29T05:12:21;4.82;;;0.70;;
48052;SDS011;33824;51.600;5.718;2022-12-29T05:14:46;10.68;;;1.23;;
48052;SDS011;33824;51.600;5.718;2022-12-29T05:17:12;10.10;;;1.48;;
48052;SDS011;33824;51.600;5.718;2022-12-29T05:19:37;7.72;;;0.90;;
48052;SDS011;33824;51.600;5.718;2022-12-29T05:22:03;3.72;;;1.10;;
48052;SDS011;33824;51.600;5.718;2022-12-29T05:24:29;4.60;;;0.80;;
48052;SDS011;33824;51.600;5.718;2022-12-29T05:26:55;7.97;;;0.90;;
48052;SDS011;33824;51.600;5.718;2022-12-29T05:29:20;6.85;;;0.75;;
48052;SDS011;33824;51.600;5.718;2022-12-29T05:31:46;9.68;;;1.00;;
48052;SDS011;33824;51.600;5.718;2022-12-29T05:34:11;5.18;;;1.75;;
48052;SDS011;33824;51.600;5.718;2022-12-29T05:36:37;9.68;;;1.23;;
48052;SDS011;33824;51.600;5.718;2022-12-29T05:39:03;7.85;;;1.00;;
48052;SDS011;33824;51.600;5.718;2022-12-29T05:41:29;10.30;;;1.92;;
48052;SDS011;33824;51.600;5.718;2022-12-29T05:43:54;3.35;;;0.90;;
48052;SDS011;33824;51.600;5.718;2022-12-29T05:46:20;6.25;;;1.40;;
48052;SDS011;33824;51.600;5.718;2022-12-29T05:48:46;6.93;;;0.98;;
48052;SDS011;33824;51.600;5.718;2022-12-29T05:51:11;2.65;;;0.63;;
48052;SDS011;33824;51.600;5.718;2022-12-29T05:53:37;5.32;;;0.90;;
48052;SDS011;33824;51.600;5.718;2022-12-29T05:56:02;4.70;;;1.27;;
48052;SDS011;33824;51.600;5.718;2022-12-29T05:58:28;4.28;;;1.23;;
48052;SDS011;33824;51.600;5.718;2022-12-29T06:00:53;8.25;;;1.15;;
48052;SDS011;33824;51.600;5.718;2022-12-29T06:03:19;5.90;;;1.40;;
48052;SDS011;33824;51.600;5.718;2022-12-29T06:05:45;4.35;;;0.65;;
48052;SDS011;33824;51.600;5.718;2022-12-29T06:08:11;3.67;;;0.70;;
48052;SDS011;33824;51.600;5.718;2022-12-29T06:10:37;5.35;;;1.13;;
48052;SDS011;33824;51.600;5.718;2022-12-29T06:13:03;5.05;;;0.98;;
48052;SDS011;33824;51.600;5.718;2022-12-29T06:15:30;4.30;;;0.82;;
48052;SDS011;33824;51.600;5.718;2022-12-29T06:17:57;4.07;;;0.65;;
48052;SDS011;33824;51.600;5.718;2022-12-29T06:20:22;4.20;;;0.90;;
48052;SDS011;33824;51.600;5.718;2022-12-29T06:22:48;11.45;;;1.40;;
48052;SDS011;33824;51.600;5.718;2022-12-29T06:25:14;4.60;;;0.80;;
48052;SDS011;33824;51.600;5.718;2022-12-29T06:27:40;8.65;;;0.95;;
48052;SDS011;33824;51.600;5.718;2022-12-29T06:30:06;4.95;;;1.23;;
48052;SDS011;33824;51.600;5.718;2022-12-29T06:32:35;3.97;;;0.80;;
48052;SDS011;33824;51.600;5.718;2022-12-29T06:35:01;3.78;;;0.90;;
48052;SDS011;33824;51.600;5.718;2022-12-29T06:37:28;3.78;;;0.82;;
48052;SDS011;33824;51.600;5.718;2022-12-29T06:39:54;4.25;;;1.08;;
48052;SDS011;33824;51.600;5.718;2022-12-29T06:42:20;6.03;;;1.02;;
48052;SDS011;33824;51.600;5.718;2022-12-29T06:44:45;6.38;;;1.08;;
48052;SDS011;33824;51.600;5.718;2022-12-29T06:47:13;5.07;;;1.20;;
48052;SDS011;33824;51.600;5.718;2022-12-29T06:49:38;5.13;;;0.90;;
48052;SDS011;33824;51.600;5.718;2022-12-29T06:52:04;5.03;;;1.15;;
48052;SDS011;33824;51.600;5.718;2022-12-29T06:54:30;5.40;;;0.98;;
48052;SDS011;33824;51.600;5.718;2022-12-29T06:56:56;3.67;;;0.90;;
48052;SDS011;33824;51.600;5.718;2022-12-29T06:59:31;3.92;;;1.17;;
48052;SDS011;33824;51.600;5.718;2022-12-29T07:01:57;6.30;;;1.35;;
48052;SDS011;33824;51.600;5.718;2022-12-29T07:04:22;8.95;;;0.85;;
48052;SDS011;33824;51.600;5.718;2022-12-29T07:06:54;6.15;;;1.42;;
48052;SDS011;33824;51.600;5.718;2022-12-29T07:09:20;8.60;;;1.05;;
48052;SDS011;33824;51.600;5.718;2022-12-29T07:11:45;4.45;;;0.95;;
48052;SDS011;33824;51.600;5.718;2022-12-29T07:14:11;10.75;;;1.48;;
48052;SDS011;33824;51.600;5.718;2022-12-29T07:16:37;10.35;;;1.10;;
48052;SDS011;33824;51.600;5.718;2022-12-29T07:19:03;4.50;;;1.25;;
48052;SDS011;33824;51.600;5.718;2022-12-29T07:21:29;4.53;;;0.85;;
48052;SDS011;33824;51.600;5.718;2022-12-29T07:23:55;3.28;;;0.75;;
48052;SDS011;33824;51.600;5.718;2022-12-29T07:26:20;8.25;;;1.25;;
48052;SDS011;33824;51.600;5.718;2022-12-29T07:28:46;11.05;;;1.17;;
48052;SDS011;33824;51.600;5.718;2022-12-29T07:31:15;8.52;;;1.63;;
48052;SDS011;33824;51.600;5.718;2022-12-29T07:33:43;6.70;;;1.47;;
48052;SDS011;33824;51.600;5.718;2022-12-29T07:36:10;5.95;;;1.25;;
48052;SDS011;33824;51.600;5.718;2022-12-29T07:38:36;10.43;;;1.60;;
48052;SDS011;33824;51.600;5.718;2022-12-29T07:41:02;4.72;;;0.85;;
48052;SDS011;33824;51.600;5.718;2022-12-29T07:43:27;6.75;;;1.20;;
48052;SDS011;33824;51.600;5.718;2022-12-29T07:45:53;9.93;;;2.13;;
48052;SDS011;33824;51.600;5.718;2022-12-29T07:48:18;11.93;;;1.98;;
48052;SDS011;33824;51.600;5.718;2022-12-29T07:50:44;7.88;;;1.95;;
48052;SDS011;33824;51.600;5.718;2022-12-29T07:53:10;10.82;;;1.33;;
48052;SDS011;33824;51.600;5.718;2022-12-29T07:55:35;9.30;;;1.48;;
48052;SDS011;33824;51.600;5.718;2022-12-29T07:58:01;11.38;;;2.40;;
48052;SDS011;33824;51.600;5.718;2022-12-29T08:00:26;8.80;;;1.50;;
48052;SDS011;33824;51.600;5.718;2022-12-29T08:02:52;13.25;;;2.13;;
48052;SDS011;33824;51.600;5.718;2022-12-29T08:05:18;9.93;;;1.33;;
48052;SDS011;33824;51.600;5.718;2022-12-29T08:07:43;8.65;;;1.80;;
48052;SDS011;33824;51.600;5.718;2022-12-29T08:10:10;10.15;;;1.60;;
48052;SDS011;33824;51.600;5.718;2022-12-29T08:12:39;10.05;;;2.13;;
48052;SDS011;33824;51.600;5.718;2022-12-29T08:15:06;17.98;;;1.83;;
48052;SDS011;33824;51.600;5.718;2022-12-29T08:17:32;14.40;;;1.75;;
48052;SDS011;33824;51.600;5.718;2022-12-29T08:19:58;6.15;;;1.27;;
48052;SDS011;33824;51.600;5.718;2022-12-29T08:22:24;6.95;;;1.40;;
48052;SDS011;33824;51.600;5.718;2022-12-29T08:24:50;9.20;;;3.58;;
48052;SDS011;33824;51.600;5.718;2022-12-29T08:27:15;7.43;;;2.05;;
48052;SDS011;33824;51.600;5.718;2022-12-29T08:29:41;11.15;;;1.67;;
48052;SDS011;33824;51.600;5.718;2022-12-29T08:32:06;5.97;;;1.10;;
48052;SDS011;33824;51.600;5.718;2022-12-29T08:34:32;10.18;;;1.83;;
48052;SDS011;33824;51.600;5.718;2022-12-29T08:36:58;11.27;;;1.73;;
48052;SDS011;33824;51.600;5.718;2022-12-29T08:39:24;10.75;;;1.70;;
48052;SDS011;33824;51.600;5.718;2022-12-29T08:41:49;10.80;;;2.20;;
48052;SDS011;33824;51.600;5.718;2022-12-29T08:44:15;8.45;;;1.70;;
48052;SDS011;33824;51.600;5.718;2022-12-29T08:46:40;10.63;;;3.30;;
48052;SDS011;33824;51.600;5.718;2022-12-29T08:49:06;10.65;;;1.90;;
48052;SDS011;33824;51.600;5.718;2022-12-29T08:51:32;7.20;;;1.02;;
48052;SDS011;33824;51.600;5.718;2022-12-29T08:53:58;5.43;;;1.13;;
48052;SDS011;33824;51.600;5.718;2022-12-29T08:56:23;6.13;;;1.65;;
48052;SDS011;33824;51.600;5.718;2022-12-29T08:58:50;10.13;;;1.60;;
48052;SDS011;33824;51.600;5.718;2022-12-29T09:01:16;8.80;;;1.40;;
48052;SDS011;33824;51.600;5.718;2022-12-29T09:03:41;8.77;;;1.25;;
48052;SDS011;33824;51.600;5.718;2022-12-29T09:06:07;11.57;;;2.63;;
48052;SDS011;33824;51.600;5.718;2022-12-29T09:08:32;12.32;;;1.83;;
48052;SDS011;33824;51.600;5.718;2022-12-29T09:11:15;3.60;;;1.30;;
48052;SDS011;33824;51.600;5.718;2022-12-29T09:13:43;8.98;;;2.15;;
48052;SDS011;33824;51.600;5.718;2022-12-29T09:16:09;8.85;;;1.38;;
48052;SDS011;33824;51.600;5.718;2022-12-29T09:18:35;11.23;;;1.48;;
48052;SDS011;33824;51.600;5.718;2022-12-29T09:21:02;8.90;;;2.13;;
48052;SDS011;33824;51.600;5.718;2022-12-29T09:23:29;7.60;;;1.30;;
48052;SDS011;33824;51.600;5.718;2022-12-29T09:25:56;6.85;;;1.20;;
48052;SDS011;33824;51.600;5.718;2022-12-29T09:28:22;8.43;;;1.35;;
48052;SDS011;33824;51.600;5.718;2022-12-29T09:30:48;6.25;;;1.38;;
48052;SDS011;33824;51.600;5.718;2022-12-29T09:33:17;10.27;;;1.83;;
48052;SDS011;33824;51.600;5.718;2022-12-29T09:35:44;5.40;;;1.42;;
48052;SDS011;33824;51.600;5.718;2022-12-29T09:38:15;14.48;;;1.80;;
48052;SDS011;33824;51.600;5.718;2022-12-29T09:40:41;10.88;;;1.45;;
48052;SDS011;33824;51.600;5.718;2022-12-29T09:43:16;8.18;;;2.10;;
48052;SDS011;33824;51.600;5.718;2022-12-29T09:45:59;11.13;;;1.83;;
48052;SDS011;33824;51.600;5.718;2022-12-29T09:48:40;7.80;;;1.17;;
48052;SDS011;33824;51.600;5.718;2022-12-29T09:51:10;9.63;;;1.73;;
48052;SDS011;33824;51.600;5.718;2022-12-29T09:54:00;6.90;;;1.70;;
48052;SDS011;33824;51.600;5.718;2022-12-29T09:56:36;13.05;;;1.55;;
48052;SDS011;33824;51.600;5.718;2022-12-29T09:59:04;8.45;;;1.17;;
48052;SDS011;33824;51.600;5.718;2022-12-29T10:04:29;11.30;;;1.50;;
48052;SDS011;33824;51.600;5.718;2022-12-29T10:06:57;9.15;;;1.25;;
48052;SDS011;33824;51.600;5.718;2022-12-29T10:10:00;7.55;;;1.08;;
48052;SDS011;33824;51.600;5.718;2022-12-29T10:18:43;9.02;;;1.45;;
48052;SDS011;33824;51.600;5.718;2022-12-29T10:23:51;7.28;;;1.20;;
48052;SDS011;33824;51.600;5.718;2022-12-29T10:26:19;11.88;;;1.60;;
48052;SDS011;33824;51.600;5.718;2022-12-29T10:28:54;6.18;;;1.15;;
48052;SDS011;33824;51.600;5.718;2022-12-29T10:31:24;5.82;;;1.20;;
48052;SDS011;33824;51.600;5.718;2022-12-29T10:34:01;12.40;;;1.80;;
48052;SDS011;33824;51.600;5.718;2022-12-29T10:36:35;11.13;;;1.30;;
48052;SDS011;33824;51.600;5.718;2022-12-29T10:39:16;5.15;;;0.85;;
48052;SDS011;33824;51.600;5.718;2022-12-29T10:42:04;7.32;;;1.42;;
48052;SDS011;33824;51.600;5.718;2022-12-29T10:44:34;9.23;;;1.30;;
48052;SDS011;33824;51.600;5.718;2022-12-29T10:47:02;8.63;;;1.25;;
48052;SDS011;33824;51.600;5.718;2022-12-29T10:49:39;5.13;;;1.63;;
48052;SDS011;33824;51.600;5.718;2022-12-29T10:52:08;13.20;;;2.00;;
48052;SDS011;33824;51.600;5.718;2022-12-29T10:57:26;11.80;;;1.90;;
48052;SDS011;33824;51.600;5.718;2022-12-29T10:59:57;9.07;;;2.67;;
48052;SDS011;33824;51.600;5.718;2022-12-29T11:02:41;9.05;;;1.70;;
48052;SDS011;33824;51.600;5.718;2022-12-29T11:05:33;10.02;;;1.58;;
48052;SDS011;33824;51.600;5.718;2022-12-29T11:08:02;8.82;;;1.50;;
48052;SDS011;33824;51.600;5.718;2022-12-29T11:13:00;11.15;;;1.90;;
48052;SDS011;33824;51.600;5.718;2022-12-29T11:15:27;8.13;;;1.15;;
48052;SDS011;33824;51.600;5.718;2022-12-29T11:18:03;7.65;;;1.40;;
48052;SDS011;33824;51.600;5.718;2022-12-29T11:20:38;6.93;;;1.30;;
48052;SDS011;33824;51.600;5.718;2022-12-29T11:23:27;9.10;;;1.80;;
48052;SDS011;33824;51.600;5.718;2022-12-29T11:28:43;12.10;;;1.63;;
48052;SDS011;33824;51.600;5.718;2022-12-29T11:31:12;8.35;;;1.55;;
48052;SDS011;33824;51.600;5.718;2022-12-29T11:33:41;9.52;;;1.48;;
48052;SDS011;33824;51.600;5.718;2022-12-29T11:36:08;9.52;;;1.80;;
48052;SDS011;33824;51.600;5.718;2022-12-29T11:38:40;9.98;;;1.73;;
48052;SDS011;33824;51.600;5.718;2022-12-29T11:41:18;10.13;;;1.75;;
48052;SDS011;33824;51.600;5.718;2022-12-29T11:43:47;10.25;;;1.63;;
48052;SDS011;33824;51.600;5.718;2022-12-29T11:46:23;16.45;;;2.75;;
48052;SDS011;33824;51.600;5.718;2022-12-29T11:48:52;9.88;;;1.95;;
48052;SDS011;33824;51.600;5.718;2022-12-29T11:51:22;8.27;;;1.65;;
48052;SDS011;33824;51.600;5.718;2022-12-29T11:53:51;9.65;;;1.60;;
48052;SDS011;33824;51.600;5.718;2022-12-29T11:56:31;13.07;;;2.15;;
48052;SDS011;33824;51.600;5.718;2022-12-29T12:01:53;12.32;;;1.95;;
48052;SDS011;33824;51.600;5.718;2022-12-29T12:04:23;13.60;;;2.03;;
48052;SDS011;33824;51.600;5.718;2022-12-29T12:10:01;10.30;;;2.20;;
48052;SDS011;33824;51.600;5.718;2022-12-29T12:12:34;15.77;;;1.63;;
48052;SDS011;33824;51.600;5.718;2022-12-29T12:15:08;18.13;;;4.28;;
48052;SDS011;33824;51.600;5.718;2022-12-29T12:17:43;15.63;;;2.05;;
48052;SDS011;33824;51.600;5.718;2022-12-29T12:20:19;13.75;;;2.10;;
48052;SDS011;33824;51.600;5.718;2022-12-29T12:22:51;15.47;;;2.00;;
48052;SDS011;33824;51.600;5.718;2022-12-29T12:25:43;16.63;;;2.83;;
48052;SDS011;33824;51.600;5.718;2022-12-29T12:28:25;15.60;;;2.45;;
48052;SDS011;33824;51.600;5.718;2022-12-29T12:31:18;20.33;;;4.13;;
48052;SDS011;33824;51.600;5.718;2022-12-29T12:34:07;13.55;;;2.67;;
48052;SDS011;33824;51.600;5.718;2022-12-29T12:39:26;14.45;;;1.70;;
48052;SDS011;33824;51.600;5.718;2022-12-29T12:50:25;17.13;;;2.05;;
48052;SDS011;33824;51.600;5.718;2022-12-29T12:58:55;15.35;;;1.90;;
48052;SDS011;33824;51.600;5.718;2022-12-29T13:01:42;9.82;;;2.28;;
48052;SDS011;33824;51.600;5.718;2022-12-29T13:09:44;6.78;;;1.50;;
48052;SDS011;33824;51.600;5.718;2022-12-29T13:15:35;14.32;;;1.52;;
48052;SDS011;33824;51.600;5.718;2022-12-29T13:25:47;13.35;;;2.22;;
48052;SDS011;33824;51.600;5.718;2022-12-29T13:30:50;15.30;;;2.08;;
48052;SDS011;33824;51.600;5.718;2022-12-29T13:33:45;10.80;;;1.40;;
48052;SDS011;33824;51.600;5.718;2022-12-29T13:36:50;8.88;;;1.52;;
48052;SDS011;33824;51.600;5.718;2022-12-29T13:39:21;17.27;;;1.55;;
48052;SDS011;33824;51.600;5.718;2022-12-29T13:41:53;12.82;;;1.85;;
48052;SDS011;33824;51.600;5.718;2022-12-29T13:44:33;5.43;;;1.30;;
48052;SDS011;33824;51.600;5.718;2022-12-29T13:47:06;11.35;;;1.40;;
48052;SDS011;33824;51.600;5.718;2022-12-29T13:49:37;7.45;;;1.33;;
48052;SDS011;33824;51.600;5.718;2022-12-29T13:52:09;15.40;;;1.90;;
48052;SDS011;33824;51.600;5.718;2022-12-29T13:54:54;13.40;;;1.58;;
48052;SDS011;33824;51.600;5.718;2022-12-29T14:00:18;13.70;;;2.63;;
48052;SDS011;33824;51.600;5.718;2022-12-29T14:08:03;10.88;;;1.48;;
48052;SDS011;33824;51.600;5.718;2022-12-29T14:10:35;8.85;;;1.65;;
48052;SDS011;33824;51.600;5.718;2022-12-29T14:15:38;10.63;;;1.90;;
48052;SDS011;33824;51.600;5.718;2022-12-29T14:18:12;9.20;;;1.73;;
48052;SDS011;33824;51.600;5.718;2022-12-29T14:20:54;5.40;;;1.13;;
48052;SDS011;33824;51.600;5.718;2022-12-29T14:23:34;5.30;;;1.02;;
48052;SDS011;33824;51.600;5.718;2022-12-29T14:26:17;9.00;;;1.60;;
48052;SDS011;33824;51.600;5.718;2022-12-29T14:32:02;7.78;;;1.38;;
48052;SDS011;33824;51.600;5.718;2022-12-29T14:34:48;10.68;;;2.45;;
48052;SDS011;33824;51.600;5.718;2022-12-29T14:37:23;4.75;;;1.30;;
48052;SDS011;33824;51.600;5.718;2022-12-29T14:40:14;6.70;;;1.52;;
48052;SDS011;33824;51.600;5.718;2022-12-29T14:42:43;8.73;;;1.98;;
48052;SDS011;33824;51.600;5.718;2022-12-29T14:47:40;7.88;;;1.50;;
48052;SDS011;33824;51.600;5.718;2022-12-29T14:50:13;9.10;;;2.15;;
48052;SDS011;33824;51.600;5.718;2022-12-29T14:52:47;12.35;;;2.20;;
48052;SDS011;33824;51.600;5.718;2022-12-29T14:58:16;12.90;;;1.67;;
48052;SDS011;33824;51.600;5.718;2022-12-29T15:00:46;7.38;;;1.80;;
48052;SDS011;33824;51.600;5.718;2022-12-29T15:03:20;13.45;;;2.17;;
48052;SDS011;33824;51.600;5.718;2022-12-29T15:08:22;10.50;;;1.80;;
48052;SDS011;33824;51.600;5.718;2022-12-29T15:10:53;9.10;;;2.10;;
48052;SDS011;33824;51.600;5.718;2022-12-29T15:13:32;17.40;;;2.88;;
48052;SDS011;33824;51.600;5.718;2022-12-29T15:16:04;9.30;;;1.42;;
48052;SDS011;33824;51.600;5.718;2022-12-29T15:18:46;8.43;;;1.35;;
48052;SDS011;33824;51.600;5.718;2022-12-29T15:21:13;7.45;;;1.55;;
48052;SDS011;33824;51.600;5.718;2022-12-29T15:23:40;9.95;;;2.20;;
48052;SDS011;33824;51.600;5.718;2022-12-29T15:26:09;12.98;;;1.58;;
48052;SDS011;33824;51.600;5.718;2022-12-29T15:28:39;10.65;;;1.38;;
48052;SDS011;33824;51.600;5.718;2022-12-29T15:31:11;5.57;;;1.50;;
48052;SDS011;33824;51.600;5.718;2022-12-29T15:33:39;5.85;;;1.38;;
48052;SDS011;33824;51.600;5.718;2022-12-29T15:36:10;7.22;;;1.42;;
48052;SDS011;33824;51.600;5.718;2022-12-29T15:41:05;10.57;;;1.50;;
48052;SDS011;33824;51.600;5.718;2022-12-29T15:46:34;9.20;;;1.30;;
48052;SDS011;33824;51.600;5.718;2022-12-29T15:49:03;8.05;;;1.10;;
48052;SDS011;33824;51.600;5.718;2022-12-29T15:51:32;5.07;;;1.13;;
48052;SDS011;33824;51.600;5.718;2022-12-29T15:54:00;8.43;;;1.17;;
48052;SDS011;33824;51.600;5.718;2022-12-29T15:56:31;5.95;;;1.45;;
48052;SDS011;33824;51.600;5.718;2022-12-29T15:58:58;5.85;;;1.10;;
48052;SDS011;33824;51.600;5.718;2022-12-29T16:03:57;3.88;;;0.90;;
48052;SDS011;33824;51.600;5.718;2022-12-29T16:06:32;5.03;;;1.20;;
48052;SDS011;33824;51.600;5.718;2022-12-29T16:09:01;8.45;;;1.30;;
48052;SDS011;33824;51.600;5.718;2022-12-29T16:11:34;7.53;;;1.55;;
48052;SDS011;33824;51.600;5.718;2022-12-29T16:14:07;4.53;;;1.13;;
48052;SDS011;33824;51.600;5.718;2022-12-29T16:16:36;4.50;;;0.93;;
48052;SDS011;33824;51.600;5.718;2022-12-29T16:19:17;10.25;;;1.83;;
48052;SDS011;33824;51.600;5.718;2022-12-29T16:21:49;4.45;;;1.20;;
48052;SDS011;33824;51.600;5.718;2022-12-29T16:24:16;3.13;;;1.00;;
48052;SDS011;33824;51.600;5.718;2022-12-29T16:26:48;3.90;;;1.33;;
48052;SDS011;33824;51.600;5.718;2022-12-29T16:29:16;4.93;;;1.25;;
48052;SDS011;33824;51.600;5.718;2022-12-29T16:31:52;4.13;;;1.10;;
48052;SDS011;33824;51.600;5.718;2022-12-29T16:36:57;6.38;;;0.75;;
48052;SDS011;33824;51.600;5.718;2022-12-29T16:41:55;4.00;;;0.83;;
48052;SDS011;33824;51.600;5.718;2022-12-29T16:44:26;7.90;;;1.33;;
48052;SDS011;33824;51.600;5.718;2022-12-29T16:49:27;12.15;;;2.05;;
48052;SDS011;33824;51.600;5.718;2022-12-29T16:51:55;5.65;;;1.30;;
48052;SDS011;33824;51.600;5.718;2022-12-29T16:54:22;5.63;;;1.00;;
48052;SDS011;33824;51.600;5.718;2022-12-29T16:56:50;4.45;;;0.90;;
48052;SDS011;33824;51.600;5.718;2022-12-29T17:01:58;9.15;;;1.10;;
48052;SDS011;33824;51.600;5.718;2022-12-29T17:04:26;6.07;;;0.90;;
48052;SDS011;33824;51.600;5.718;2022-12-29T17:06:51;3.13;;;0.98;;
48052;SDS011;33824;51.600;5.718;2022-12-29T17:09:18;9.70;;;1.88;;
48052;SDS011;33824;51.600;5.718;2022-12-29T17:11:54;8.10;;;1.55;;
48052;SDS011;33824;51.600;5.718;2022-12-29T17:14:33;9.20;;;1.27;;
48052;SDS011;33824;51.600;5.718;2022-12-29T17:19:49;7.57;;;1.30;;
48052;SDS011;33824;51.600;5.718;2022-12-29T17:22:22;14.20;;;1.35;;
48052;SDS011;33824;51.600;5.718;2022-12-29T17:24:50;7.60;;;1.45;;